Aérodrome :
LOGIN :

S'inscrire | Disclaimer

   EN    FR    IT 

 










Légende :    VFR   VFR Marginal   IFR   IFR Intensif   IFR Très Intensif
Visi : 
Plafond : 
>= 8 km
>= 3000ft
5 à 8 km
1000 à 3000 ft
1500m à 5 km
500 à 1000 ft
800 à 1500m
200 à 500 ft
< 800m
< 200 ft
Symboles :   Orages  Brouillard  Fortes neiges  Fortes précipitations  Vent > 20 kt
SIGMETs :   Divers  Orages  Givrage  Turbulence  Onde Orograph.  Cendres Volcan.






- Altitude de l'aérodrome : 870 ft
- Code IATA : ETZ


LFJL - Metz Nancy Lorraine

DERNIER METAR :
  • 232100Z AUTO VRB02KT 6000 OVC009 12/11 Q1010 BECMG 3000 BR OVC004

METARs EXPIRÉS :
  • 232030Z AUTO 15005KT 110V190 6000 BKN010 BKN220 OVC240 12/11 Q1010 BECMG 3000 BR OVC004
  • 232000Z AUTO 09005KT 7000 SCT009 BKN240 12/11 Q1010 BECMG 3000 BR OVC004
  • 231930Z AUTO 07007KT 050V130 8000 BKN010 BKN210 12/11 Q1010 BECMG 3000 BR OVC004
  • 231900Z AUTO 07006KT 9000 FEW010 OVC230 13/11 Q1010 BECMG 3000 BR OVC004
  • 231830Z AUTO 06006KT 8000 FEW012 BKN230 OVC240 13/11 Q1010 BECMG 3000 BR OVC004
  • 231800Z AUTO VRB02KT 8000 NSC 13/12 Q1010 TEMPO 4000 BR

TAF TAF LFJL
Valide du 23 à 18h jusqu'au 24 à 18h UTC


231700Z 2318/2418 11005KT 8000 NSC
PROB40
TEMPO 2318/2320 4000 BR
BECMG 2320/2322 3000 BR OVC004
TEMPO 2323/2408 0500 FG VV///
PROB40
TEMPO 2405/2408 0300 -RADZ
BECMG 2410/2412 21012KT 9999 NSW SCT030



MET'MAP, la Météo Aéronautique d'un coup d'oeil ! - Copyright ORBIFLY Décembre 2007 - Disclaimer

ORBIFLY MET'MAP TEAM :

Programmation & Développement : Alexandra Zaïnal
Conception & Développement : Baudouin d'Aumeries
Co-Programmation & Développement : Marc-Olivier Méhu
Soutien technique & logistique : Manuel Goepfert

Contact : metmap@orbifly.com




SOURCES & CREDITS :

   NOAA